sensor_id;sensor_type;location;lat;lon;timestamp;P1;durP1;ratioP1;P2;durP2;ratioP2
52934;SDS011;38802;50.198;19.796;2023-12-29T00:00:31;14.00;;;11.60;;
52934;SDS011;38802;50.198;19.796;2023-12-29T00:03:19;17.60;;;11.50;;
52934;SDS011;38802;50.198;19.796;2023-12-29T00:05:47;17.20;;;10.50;;
52934;SDS011;38802;50.198;19.796;2023-12-29T00:08:15;14.50;;;10.50;;
52934;SDS011;38802;50.198;19.796;2023-12-29T00:10:43;15.30;;;10.30;;
52934;SDS011;38802;50.198;19.796;2023-12-29T00:13:11;11.30;;;9.20;;
52934;SDS011;38802;50.198;19.796;2023-12-29T00:15:39;12.60;;;9.20;;
52934;SDS011;38802;50.198;19.796;2023-12-29T00:18:08;8.60;;;7.70;;
52934;SDS011;38802;50.198;19.796;2023-12-29T00:20:36;12.50;;;8.00;;
52934;SDS011;38802;50.198;19.796;2023-12-29T00:23:09;8.10;;;7.30;;
52934;SDS011;38802;50.198;19.796;2023-12-29T00:25:37;10.70;;;7.30;;
52934;SDS011;38802;50.198;19.796;2023-12-29T00:28:05;8.50;;;7.50;;
52934;SDS011;38802;50.198;19.796;2023-12-29T00:30:34;8.90;;;7.50;;
52934;SDS011;38802;50.198;19.796;2023-12-29T00:33:25;12.30;;;6.90;;
52934;SDS011;38802;50.198;19.796;2023-12-29T00:35:54;11.00;;;8.60;;
52934;SDS011;38802;50.198;19.796;2023-12-29T00:38:22;9.70;;;8.20;;
52934;SDS011;38802;50.198;19.796;2023-12-29T00:40:50;11.10;;;8.10;;
52934;SDS011;38802;50.198;19.796;2023-12-29T00:43:18;12.50;;;8.30;;
52934;SDS011;38802;50.198;19.796;2023-12-29T00:45:46;10.00;;;9.10;;
52934;SDS011;38802;50.198;19.796;2023-12-29T00:48:15;9.30;;;8.30;;
52934;SDS011;38802;50.198;19.796;2023-12-29T00:50:43;11.20;;;8.50;;
52934;SDS011;38802;50.198;19.796;2023-12-29T00:53:11;11.40;;;8.10;;
52934;SDS011;38802;50.198;19.796;2023-12-29T00:55:39;9.00;;;8.00;;
52934;SDS011;38802;50.198;19.796;2023-12-29T00:58:08;10.90;;;8.70;;
52934;SDS011;38802;50.198;19.796;2023-12-29T01:00:36;9.10;;;8.20;;
52934;SDS011;38802;50.198;19.796;2023-12-29T01:03:04;12.00;;;8.00;;
52934;SDS011;38802;50.198;19.796;2023-12-29T01:05:32;12.30;;;9.00;;
52934;SDS011;38802;50.198;19.796;2023-12-29T01:08:00;8.60;;;7.80;;
52934;SDS011;38802;50.198;19.796;2023-12-29T01:10:29;11.70;;;7.90;;
52934;SDS011;38802;50.198;19.796;2023-12-29T01:12:57;11.90;;;8.50;;
52934;SDS011;38802;50.198;19.796;2023-12-29T01:15:25;12.40;;;8.90;;
52934;SDS011;38802;50.198;19.796;2023-12-29T01:17:54;9.60;;;8.60;;
52934;SDS011;38802;50.198;19.796;2023-12-29T01:20:22;11.80;;;9.40;;
52934;SDS011;38802;50.198;19.796;2023-12-29T01:22:51;12.60;;;8.80;;
52934;SDS011;38802;50.198;19.796;2023-12-29T01:25:19;12.10;;;9.20;;
52934;SDS011;38802;50.198;19.796;2023-12-29T01:27:47;11.10;;;9.10;;
52934;SDS011;38802;50.198;19.796;2023-12-29T01:30:15;13.40;;;9.10;;
52934;SDS011;38802;50.198;19.796;2023-12-29T01:32:43;13.80;;;9.70;;
52934;SDS011;38802;50.198;19.796;2023-12-29T01:35:11;12.90;;;9.60;;
52934;SDS011;38802;50.198;19.796;2023-12-29T01:37:39;14.30;;;9.10;;
52934;SDS011;38802;50.198;19.796;2023-12-29T01:40:07;12.20;;;9.10;;
52934;SDS011;38802;50.198;19.796;2023-12-29T01:42:37;14.70;;;9.20;;
52934;SDS011;38802;50.198;19.796;2023-12-29T01:45:05;10.60;;;8.80;;
52934;SDS011;38802;50.198;19.796;2023-12-29T01:47:44;11.10;;;7.50;;
52934;SDS011;38802;50.198;19.796;2023-12-29T01:50:14;11.20;;;9.80;;
52934;SDS011;38802;50.198;19.796;2023-12-29T01:52:46;13.60;;;9.40;;
52934;SDS011;38802;50.198;19.796;2023-12-29T01:55:20;13.90;;;10.20;;
52934;SDS011;38802;50.198;19.796;2023-12-29T01:57:51;14.20;;;11.20;;
52934;SDS011;38802;50.198;19.796;2023-12-29T02:00:20;14.60;;;10.90;;
52934;SDS011;38802;50.198;19.796;2023-12-29T02:02:49;17.30;;;10.50;;
52934;SDS011;38802;50.198;19.796;2023-12-29T02:05:17;13.10;;;9.90;;
52934;SDS011;38802;50.198;19.796;2023-12-29T02:07:51;15.90;;;11.90;;
52934;SDS011;38802;50.198;19.796;2023-12-29T02:10:20;14.20;;;9.90;;
52934;SDS011;38802;50.198;19.796;2023-12-29T02:12:49;15.80;;;11.20;;
52934;SDS011;38802;50.198;19.796;2023-12-29T02:15:22;15.40;;;11.20;;
52934;SDS011;38802;50.198;19.796;2023-12-29T02:17:58;15.30;;;11.30;;
52934;SDS011;38802;50.198;19.796;2023-12-29T02:20:30;15.10;;;10.70;;
52934;SDS011;38802;50.198;19.796;2023-12-29T02:22:59;12.20;;;9.80;;
52934;SDS011;38802;50.198;19.796;2023-12-29T02:25:28;14.90;;;12.00;;
52934;SDS011;38802;50.198;19.796;2023-12-29T02:31:01;16.20;;;10.70;;
52934;SDS011;38802;50.198;19.796;2023-12-29T02:33:40;15.70;;;11.80;;
52934;SDS011;38802;50.198;19.796;2023-12-29T02:36:10;14.30;;;11.40;;
52934;SDS011;38802;50.198;19.796;2023-12-29T02:38:41;17.30;;;11.20;;
52934;SDS011;38802;50.198;19.796;2023-12-29T02:41:09;14.60;;;11.30;;
52934;SDS011;38802;50.198;19.796;2023-12-29T02:43:41;18.90;;;12.00;;
52934;SDS011;38802;50.198;19.796;2023-12-29T02:46:09;14.60;;;12.10;;
52934;SDS011;38802;50.198;19.796;2023-12-29T02:48:37;17.00;;;13.50;;
52934;SDS011;38802;50.198;19.796;2023-12-29T02:51:06;17.60;;;12.20;;
52934;SDS011;38802;50.198;19.796;2023-12-29T02:53:36;17.10;;;12.30;;
52934;SDS011;38802;50.198;19.796;2023-12-29T02:56:04;15.90;;;11.00;;
52934;SDS011;38802;50.198;19.796;2023-12-29T02:58:32;16.10;;;12.30;;
52934;SDS011;38802;50.198;19.796;2023-12-29T03:01:00;15.00;;;10.50;;
52934;SDS011;38802;50.198;19.796;2023-12-29T03:03:28;17.20;;;10.50;;
52934;SDS011;38802;50.198;19.796;2023-12-29T03:05:56;16.20;;;10.70;;
52934;SDS011;38802;50.198;19.796;2023-12-29T03:08:25;15.40;;;10.40;;
52934;SDS011;38802;50.198;19.796;2023-12-29T03:10:53;20.70;;;10.90;;
52934;SDS011;38802;50.198;19.796;2023-12-29T03:13:20;11.10;;;8.80;;
52934;SDS011;38802;50.198;19.796;2023-12-29T03:15:49;15.10;;;9.80;;
52934;SDS011;38802;50.198;19.796;2023-12-29T03:18:17;14.40;;;10.30;;
52934;SDS011;38802;50.198;19.796;2023-12-29T03:20:45;15.20;;;9.90;;
52934;SDS011;38802;50.198;19.796;2023-12-29T03:23:13;14.80;;;9.50;;
52934;SDS011;38802;50.198;19.796;2023-12-29T03:25:41;11.90;;;9.50;;
52934;SDS011;38802;50.198;19.796;2023-12-29T03:28:09;14.20;;;10.40;;
52934;SDS011;38802;50.198;19.796;2023-12-29T03:30:38;12.90;;;9.70;;
52934;SDS011;38802;50.198;19.796;2023-12-29T03:33:06;16.30;;;9.80;;
52934;SDS011;38802;50.198;19.796;2023-12-29T03:35:34;12.50;;;9.70;;
52934;SDS011;38802;50.198;19.796;2023-12-29T03:38:02;10.30;;;7.70;;
52934;SDS011;38802;50.198;19.796;2023-12-29T03:40:31;11.00;;;9.00;;
52934;SDS011;38802;50.198;19.796;2023-12-29T03:42:59;11.60;;;8.80;;
52934;SDS011;38802;50.198;19.796;2023-12-29T03:45:27;12.90;;;8.50;;
52934;SDS011;38802;50.198;19.796;2023-12-29T03:47:55;12.00;;;9.40;;
52934;SDS011;38802;50.198;19.796;2023-12-29T03:50:23;12.40;;;8.10;;
52934;SDS011;38802;50.198;19.796;2023-12-29T03:52:52;13.40;;;9.90;;
52934;SDS011;38802;50.198;19.796;2023-12-29T03:55:20;12.60;;;9.90;;
52934;SDS011;38802;50.198;19.796;2023-12-29T03:57:47;11.50;;;8.10;;
52934;SDS011;38802;50.198;19.796;2023-12-29T04:00:16;9.90;;;8.70;;
52934;SDS011;38802;50.198;19.796;2023-12-29T04:02:44;9.10;;;8.20;;
52934;SDS011;38802;50.198;19.796;2023-12-29T04:05:12;13.10;;;9.10;;
52934;SDS011;38802;50.198;19.796;2023-12-29T04:07:41;12.20;;;9.70;;
52934;SDS011;38802;50.198;19.796;2023-12-29T04:10:09;15.40;;;9.60;;
52934;SDS011;38802;50.198;19.796;2023-12-29T04:12:38;9.60;;;8.60;;
52934;SDS011;38802;50.198;19.796;2023-12-29T04:15:06;9.40;;;8.00;;
52934;SDS011;38802;50.198;19.796;2023-12-29T04:17:35;9.70;;;8.50;;
52934;SDS011;38802;50.198;19.796;2023-12-29T04:20:04;8.50;;;7.20;;
52934;SDS011;38802;50.198;19.796;2023-12-29T04:22:32;9.90;;;7.90;;
52934;SDS011;38802;50.198;19.796;2023-12-29T04:25:01;7.60;;;6.90;;
52934;SDS011;38802;50.198;19.796;2023-12-29T04:27:30;8.80;;;6.80;;
52934;SDS011;38802;50.198;19.796;2023-12-29T04:29:58;9.40;;;7.30;;
52934;SDS011;38802;50.198;19.796;2023-12-29T04:32:26;8.20;;;7.30;;
52934;SDS011;38802;50.198;19.796;2023-12-29T04:34:54;7.90;;;7.10;;
52934;SDS011;38802;50.198;19.796;2023-12-29T04:37:22;9.90;;;7.20;;
52934;SDS011;38802;50.198;19.796;2023-12-29T04:39:50;9.90;;;7.20;;
52934;SDS011;38802;50.198;19.796;2023-12-29T04:42:18;9.40;;;6.30;;
52934;SDS011;38802;50.198;19.796;2023-12-29T04:44:46;6.90;;;5.80;;
52934;SDS011;38802;50.198;19.796;2023-12-29T04:47:14;12.40;;;6.60;;
52934;SDS011;38802;50.198;19.796;2023-12-29T04:49:42;7.10;;;6.30;;
52934;SDS011;38802;50.198;19.796;2023-12-29T04:52:10;9.20;;;6.10;;
52934;SDS011;38802;50.198;19.796;2023-12-29T04:54:38;9.60;;;6.30;;
52934;SDS011;38802;50.198;19.796;2023-12-29T04:57:06;6.90;;;5.50;;
52934;SDS011;38802;50.198;19.796;2023-12-29T04:59:34;7.70;;;5.80;;
52934;SDS011;38802;50.198;19.796;2023-12-29T05:02:02;6.90;;;5.80;;
52934;SDS011;38802;50.198;19.796;2023-12-29T05:04:30;6.70;;;5.50;;
52934;SDS011;38802;50.198;19.796;2023-12-29T05:06:59;6.30;;;5.60;;
52934;SDS011;38802;50.198;19.796;2023-12-29T05:09:27;6.40;;;5.70;;
52934;SDS011;38802;50.198;19.796;2023-12-29T05:11:55;7.20;;;6.40;;
52934;SDS011;38802;50.198;19.796;2023-12-29T05:14:23;10.70;;;5.90;;
52934;SDS011;38802;50.198;19.796;2023-12-29T05:16:51;6.90;;;5.80;;
52934;SDS011;38802;50.198;19.796;2023-12-29T05:19:19;5.50;;;5.00;;
52934;SDS011;38802;50.198;19.796;2023-12-29T05:21:47;6.90;;;5.70;;
52934;SDS011;38802;50.198;19.796;2023-12-29T05:24:17;4.90;;;4.40;;
52934;SDS011;38802;50.198;19.796;2023-12-29T05:26:45;4.70;;;4.30;;
52934;SDS011;38802;50.198;19.796;2023-12-29T05:29:13;6.30;;;5.00;;
52934;SDS011;38802;50.198;19.796;2023-12-29T05:31:41;5.50;;;4.80;;
52934;SDS011;38802;50.198;19.796;2023-12-29T05:34:09;11.30;;;6.20;;
52934;SDS011;38802;50.198;19.796;2023-12-29T05:36:37;7.40;;;4.50;;
52934;SDS011;38802;50.198;19.796;2023-12-29T05:39:06;5.50;;;4.20;;
52934;SDS011;38802;50.198;19.796;2023-12-29T05:41:34;8.00;;;5.80;;
52934;SDS011;38802;50.198;19.796;2023-12-29T05:44:02;4.90;;;4.40;;
52934;SDS011;38802;50.198;19.796;2023-12-29T05:46:31;7.50;;;5.50;;
52934;SDS011;38802;50.198;19.796;2023-12-29T05:48:59;4.40;;;4.00;;
52934;SDS011;38802;50.198;19.796;2023-12-29T05:51:27;6.20;;;3.80;;
52934;SDS011;38802;50.198;19.796;2023-12-29T05:53:55;6.20;;;4.70;;
52934;SDS011;38802;50.198;19.796;2023-12-29T05:56:23;8.70;;;4.30;;
52934;SDS011;38802;50.198;19.796;2023-12-29T05:58:56;6.20;;;4.30;;
52934;SDS011;38802;50.198;19.796;2023-12-29T06:01:24;4.30;;;3.90;;
52934;SDS011;38802;50.198;19.796;2023-12-29T06:03:52;4.00;;;3.40;;
52934;SDS011;38802;50.198;19.796;2023-12-29T06:06:20;4.00;;;3.60;;
52934;SDS011;38802;50.198;19.796;2023-12-29T06:08:48;4.10;;;3.70;;
52934;SDS011;38802;50.198;19.796;2023-12-29T06:11:16;4.20;;;3.80;;
52934;SDS011;38802;50.198;19.796;2023-12-29T06:13:44;4.20;;;3.80;;
52934;SDS011;38802;50.198;19.796;2023-12-29T06:16:19;3.90;;;3.40;;
52934;SDS011;38802;50.198;19.796;2023-12-29T06:18:48;3.50;;;3.10;;
52934;SDS011;38802;50.198;19.796;2023-12-29T06:21:17;4.60;;;3.40;;
52934;SDS011;38802;50.198;19.796;2023-12-29T06:23:45;5.70;;;3.60;;
52934;SDS011;38802;50.198;19.796;2023-12-29T06:26:14;3.50;;;3.20;;
52934;SDS011;38802;50.198;19.796;2023-12-29T06:28:46;3.70;;;3.10;;
52934;SDS011;38802;50.198;19.796;2023-12-29T06:31:16;4.10;;;3.00;;
52934;SDS011;38802;50.198;19.796;2023-12-29T06:33:45;4.50;;;3.20;;
52934;SDS011;38802;50.198;19.796;2023-12-29T06:36:13;6.40;;;3.20;;
52934;SDS011;38802;50.198;19.796;2023-12-29T06:38:41;3.50;;;3.10;;
52934;SDS011;38802;50.198;19.796;2023-12-29T06:41:13;4.70;;;3.10;;
52934;SDS011;38802;50.198;19.796;2023-12-29T06:43:41;3.20;;;2.60;;
52934;SDS011;38802;50.198;19.796;2023-12-29T06:46:10;7.00;;;3.20;;
52934;SDS011;38802;50.198;19.796;2023-12-29T06:48:40;3.00;;;2.70;;
52934;SDS011;38802;50.198;19.796;2023-12-29T06:51:09;2.80;;;2.50;;
52934;SDS011;38802;50.198;19.796;2023-12-29T06:53:39;3.20;;;2.90;;
52934;SDS011;38802;50.198;19.796;2023-12-29T06:56:07;3.10;;;2.70;;
52934;SDS011;38802;50.198;19.796;2023-12-29T06:58:35;4.30;;;2.90;;
52934;SDS011;38802;50.198;19.796;2023-12-29T07:01:03;3.50;;;2.70;;
52934;SDS011;38802;50.198;19.796;2023-12-29T07:03:31;3.40;;;2.90;;
52934;SDS011;38802;50.198;19.796;2023-12-29T07:06:02;3.20;;;2.80;;
52934;SDS011;38802;50.198;19.796;2023-12-29T07:08:30;3.50;;;2.60;;
52934;SDS011;38802;50.198;19.796;2023-12-29T07:10:59;3.10;;;2.80;;
52934;SDS011;38802;50.198;19.796;2023-12-29T07:13:27;2.90;;;2.60;;
52934;SDS011;38802;50.198;19.796;2023-12-29T07:15:55;3.30;;;2.80;;
52934;SDS011;38802;50.198;19.796;2023-12-29T07:18:23;3.80;;;2.90;;
52934;SDS011;38802;50.198;19.796;2023-12-29T07:20:51;3.40;;;3.00;;
52934;SDS011;38802;50.198;19.796;2023-12-29T07:23:19;5.40;;;2.80;;
52934;SDS011;38802;50.198;19.796;2023-12-29T07:25:47;3.10;;;2.70;;
52934;SDS011;38802;50.198;19.796;2023-12-29T07:28:16;3.00;;;2.60;;
52934;SDS011;38802;50.198;19.796;2023-12-29T07:30:44;3.40;;;3.00;;
52934;SDS011;38802;50.198;19.796;2023-12-29T07:33:12;4.10;;;2.60;;
52934;SDS011;38802;50.198;19.796;2023-12-29T07:35:40;5.70;;;3.20;;
52934;SDS011;38802;50.198;19.796;2023-12-29T07:38:08;4.30;;;3.00;;
52934;SDS011;38802;50.198;19.796;2023-12-29T07:40:36;3.90;;;3.20;;
52934;SDS011;38802;50.198;19.796;2023-12-29T07:43:05;5.70;;;3.00;;
52934;SDS011;38802;50.198;19.796;2023-12-29T07:45:33;6.00;;;3.70;;
52934;SDS011;38802;50.198;19.796;2023-12-29T07:48:02;3.40;;;3.10;;
52934;SDS011;38802;50.198;19.796;2023-12-29T07:50:34;5.90;;;3.30;;
52934;SDS011;38802;50.198;19.796;2023-12-29T07:53:02;3.40;;;3.10;;
52934;SDS011;38802;50.198;19.796;2023-12-29T07:55:31;3.80;;;3.40;;
52934;SDS011;38802;50.198;19.796;2023-12-29T07:57:59;3.60;;;3.30;;
52934;SDS011;38802;50.198;19.796;2023-12-29T08:00:28;4.40;;;4.00;;
52934;SDS011;38802;50.198;19.796;2023-12-29T08:02:56;4.80;;;3.80;;
52934;SDS011;38802;50.198;19.796;2023-12-29T08:05:27;4.20;;;3.60;;
52934;SDS011;38802;50.198;19.796;2023-12-29T08:07:55;3.80;;;3.20;;
52934;SDS011;38802;50.198;19.796;2023-12-29T08:10:23;3.60;;;3.30;;
52934;SDS011;38802;50.198;19.796;2023-12-29T08:12:51;5.20;;;3.30;;
52934;SDS011;38802;50.198;19.796;2023-12-29T08:15:19;3.90;;;3.50;;
52934;SDS011;38802;50.198;19.796;2023-12-29T08:17:47;4.20;;;3.10;;
52934;SDS011;38802;50.198;19.796;2023-12-29T08:20:15;5.40;;;3.10;;
52934;SDS011;38802;50.198;19.796;2023-12-29T08:22:43;4.30;;;3.40;;
52934;SDS011;38802;50.198;19.796;2023-12-29T08:25:11;3.30;;;2.70;;
52934;SDS011;38802;50.198;19.796;2023-12-29T08:27:40;4.60;;;3.30;;
52934;SDS011;38802;50.198;19.796;2023-12-29T08:30:19;2.90;;;2.60;;
52934;SDS011;38802;50.198;19.796;2023-12-29T08:32:56;4.80;;;2.90;;
52934;SDS011;38802;50.198;19.796;2023-12-29T08:35:28;3.30;;;2.90;;
52934;SDS011;38802;50.198;19.796;2023-12-29T08:37:56;3.50;;;2.90;;
52934;SDS011;38802;50.198;19.796;2023-12-29T08:40:24;2.90;;;2.60;;
52934;SDS011;38802;50.198;19.796;2023-12-29T08:42:52;2.60;;;2.40;;
52934;SDS011;38802;50.198;19.796;2023-12-29T08:45:20;3.90;;;2.80;;
52934;SDS011;38802;50.198;19.796;2023-12-29T08:47:52;3.10;;;2.80;;
52934;SDS011;38802;50.198;19.796;2023-12-29T08:50:20;3.30;;;2.90;;
52934;SDS011;38802;50.198;19.796;2023-12-29T08:52:49;3.70;;;3.00;;
52934;SDS011;38802;50.198;19.796;2023-12-29T08:55:18;2.90;;;2.10;;
52934;SDS011;38802;50.198;19.796;2023-12-29T08:57:46;3.00;;;2.70;;
52934;SDS011;38802;50.198;19.796;2023-12-29T09:00:14;2.90;;;2.50;;
52934;SDS011;38802;50.198;19.796;2023-12-29T09:02:45;2.70;;;2.40;;
52934;SDS011;38802;50.198;19.796;2023-12-29T09:05:14;3.10;;;2.20;;
52934;SDS011;38802;50.198;19.796;2023-12-29T09:07:42;3.70;;;2.70;;
52934;SDS011;38802;50.198;19.796;2023-12-29T09:10:10;2.90;;;2.50;;
52934;SDS011;38802;50.198;19.796;2023-12-29T09:12:40;4.50;;;2.50;;
52934;SDS011;38802;50.198;19.796;2023-12-29T09:15:08;5.40;;;2.80;;
52934;SDS011;38802;50.198;19.796;2023-12-29T09:17:39;2.70;;;2.50;;
52934;SDS011;38802;50.198;19.796;2023-12-29T09:20:08;3.50;;;2.60;;
52934;SDS011;38802;50.198;19.796;2023-12-29T09:22:38;3.60;;;2.70;;
52934;SDS011;38802;50.198;19.796;2023-12-29T09:25:07;3.40;;;2.40;;
52934;SDS011;38802;50.198;19.796;2023-12-29T09:27:36;3.20;;;2.60;;
52934;SDS011;38802;50.198;19.796;2023-12-29T09:30:04;4.30;;;2.30;;
52934;SDS011;38802;50.198;19.796;2023-12-29T09:32:33;3.90;;;2.60;;
52934;SDS011;38802;50.198;19.796;2023-12-29T09:35:01;4.20;;;2.90;;
52934;SDS011;38802;50.198;19.796;2023-12-29T09:37:29;3.20;;;2.10;;
52934;SDS011;38802;50.198;19.796;2023-12-29T09:39:57;2.20;;;2.00;;
52934;SDS011;38802;50.198;19.796;2023-12-29T09:42:25;3.20;;;2.50;;
52934;SDS011;38802;50.198;19.796;2023-12-29T09:44:56;3.50;;;2.50;;
52934;SDS011;38802;50.198;19.796;2023-12-29T09:47:26;4.50;;;2.20;;
52934;SDS011;38802;50.198;19.796;2023-12-29T09:49:56;3.60;;;2.40;;
52934;SDS011;38802;50.198;19.796;2023-12-29T09:52:24;2.70;;;2.40;;
52934;SDS011;38802;50.198;19.796;2023-12-29T09:54:52;2.50;;;2.30;;
52934;SDS011;38802;50.198;19.796;2023-12-29T09:57:21;2.60;;;1.70;;
52934;SDS011;38802;50.198;19.796;2023-12-29T09:59:49;4.90;;;2.30;;
52934;SDS011;38802;50.198;19.796;2023-12-29T10:02:20;2.90;;;2.10;;
52934;SDS011;38802;50.198;19.796;2023-12-29T10:04:50;4.80;;;2.20;;
52934;SDS011;38802;50.198;19.796;2023-12-29T10:07:20;2.00;;;1.80;;
52934;SDS011;38802;50.198;19.796;2023-12-29T10:09:57;2.60;;;2.10;;
52934;SDS011;38802;50.198;19.796;2023-12-29T10:12:27;2.90;;;1.90;;
52934;SDS011;38802;50.198;19.796;2023-12-29T10:14:59;2.40;;;2.00;;
52934;SDS011;38802;50.198;19.796;2023-12-29T10:17:52;4.40;;;2.10;;
52934;SDS011;38802;50.198;19.796;2023-12-29T10:26:28;2.90;;;2.00;;
52934;SDS011;38802;50.198;19.796;2023-12-29T10:28:57;2.30;;;2.10;;
52934;SDS011;38802;50.198;19.796;2023-12-29T10:31:41;2.90;;;2.30;;
52934;SDS011;38802;50.198;19.796;2023-12-29T10:34:21;6.50;;;2.20;;
52934;SDS011;38802;50.198;19.796;2023-12-29T10:36:59;3.30;;;2.00;;
52934;SDS011;38802;50.198;19.796;2023-12-29T10:39:32;3.20;;;2.50;;
52934;SDS011;38802;50.198;19.796;2023-12-29T10:42:04;2.20;;;1.90;;
52934;SDS011;38802;50.198;19.796;2023-12-29T10:44:36;3.40;;;2.00;;
52934;SDS011;38802;50.198;19.796;2023-12-29T10:48:03;2.10;;;1.90;;
52934;SDS011;38802;50.198;19.796;2023-12-29T10:53:12;2.90;;;2.00;;
52934;SDS011;38802;50.198;19.796;2023-12-29T10:55:40;3.20;;;2.10;;
52934;SDS011;38802;50.198;19.796;2023-12-29T10:58:09;3.90;;;2.40;;
52934;SDS011;38802;50.198;19.796;2023-12-29T11:00:37;2.50;;;1.70;;
52934;SDS011;38802;50.198;19.796;2023-12-29T11:03:06;4.50;;;2.20;;
52934;SDS011;38802;50.198;19.796;2023-12-29T11:05:35;2.10;;;1.90;;
52934;SDS011;38802;50.198;19.796;2023-12-29T11:08:03;3.30;;;2.20;;
52934;SDS011;38802;50.198;19.796;2023-12-29T11:10:49;2.70;;;1.90;;
52934;SDS011;38802;50.198;19.796;2023-12-29T11:13:18;2.50;;;2.20;;
52934;SDS011;38802;50.198;19.796;2023-12-29T11:15:48;3.60;;;2.20;;
52934;SDS011;38802;50.198;19.796;2023-12-29T11:18:16;2.80;;;2.10;;
52934;SDS011;38802;50.198;19.796;2023-12-29T11:20:47;2.50;;;2.10;;
52934;SDS011;38802;50.198;19.796;2023-12-29T11:23:15;2.60;;;2.30;;
52934;SDS011;38802;50.198;19.796;2023-12-29T11:25:44;44.70;;;20.70;;
52934;SDS011;38802;50.198;19.796;2023-12-29T11:28:14;24.70;;;15.40;;
52934;SDS011;38802;50.198;19.796;2023-12-29T11:30:43;8.50;;;7.60;;
52934;SDS011;38802;50.198;19.796;2023-12-29T11:33:15;5.60;;;2.20;;
52934;SDS011;38802;50.198;19.796;2023-12-29T11:35:53;9.40;;;7.90;;
52934;SDS011;38802;50.198;19.796;2023-12-29T11:38:33;2.60;;;2.40;;
52934;SDS011;38802;50.198;19.796;2023-12-29T11:41:21;3.10;;;2.70;;
52934;SDS011;38802;50.198;19.796;2023-12-29T11:43:59;2.00;;;1.80;;
52934;SDS011;38802;50.198;19.796;2023-12-29T11:46:35;2.50;;;2.00;;
52934;SDS011;38802;50.198;19.796;2023-12-29T11:49:07;2.00;;;1.90;;
52934;SDS011;38802;50.198;19.796;2023-12-29T11:51:38;2.00;;;1.70;;
52934;SDS011;38802;50.198;19.796;2023-12-29T11:54:07;2.00;;;1.80;;
52934;SDS011;38802;50.198;19.796;2023-12-29T11:56:37;4.10;;;2.00;;
52934;SDS011;38802;50.198;19.796;2023-12-29T11:59:36;2.10;;;1.90;;
52934;SDS011;38802;50.198;19.796;2023-12-29T12:02:26;2.10;;;1.90;;
52934;SDS011;38802;50.198;19.796;2023-12-29T12:04:56;4.10;;;2.40;;
52934;SDS011;38802;50.198;19.796;2023-12-29T12:09:56;5.50;;;2.00;;
52934;SDS011;38802;50.198;19.796;2023-12-29T12:13:00;2.20;;;2.00;;
52934;SDS011;38802;50.198;19.796;2023-12-29T12:15:32;2.30;;;1.90;;
52934;SDS011;38802;50.198;19.796;2023-12-29T12:18:10;2.20;;;1.70;;
52934;SDS011;38802;50.198;19.796;2023-12-29T12:20:40;2.40;;;2.10;;
52934;SDS011;38802;50.198;19.796;2023-12-29T12:23:12;4.90;;;2.00;;
52934;SDS011;38802;50.198;19.796;2023-12-29T12:25:45;2.60;;;2.20;;
52934;SDS011;38802;50.198;19.796;2023-12-29T12:28:14;2.40;;;2.00;;
52934;SDS011;38802;50.198;19.796;2023-12-29T12:30:44;2.20;;;2.00;;
52934;SDS011;38802;50.198;19.796;2023-12-29T12:33:13;2.60;;;1.90;;
52934;SDS011;38802;50.198;19.796;2023-12-29T12:35:42;4.20;;;2.20;;
52934;SDS011;38802;50.198;19.796;2023-12-29T12:38:13;2.50;;;2.10;;
52934;SDS011;38802;50.198;19.796;2023-12-29T12:40:48;2.50;;;2.20;;
52934;SDS011;38802;50.198;19.796;2023-12-29T12:43:16;4.40;;;2.50;;
52934;SDS011;38802;50.198;19.796;2023-12-29T12:45:53;2.40;;;2.20;;
52934;SDS011;38802;50.198;19.796;2023-12-29T12:51:12;3.20;;;2.30;;
52934;SDS011;38802;50.198;19.796;2023-12-29T12:53:42;2.20;;;1.90;;
52934;SDS011;38802;50.198;19.796;2023-12-29T12:56:12;2.80;;;2.20;;
52934;SDS011;38802;50.198;19.796;2023-12-29T12:58:41;3.20;;;2.70;;
52934;SDS011;38802;50.198;19.796;2023-12-29T13:01:10;2.40;;;2.20;;
52934;SDS011;38802;50.198;19.796;2023-12-29T13:03:39;2.60;;;2.30;;
52934;SDS011;38802;50.198;19.796;2023-12-29T13:06:08;3.20;;;2.50;;
52934;SDS011;38802;50.198;19.796;2023-12-29T13:08:36;2.50;;;2.30;;
52934;SDS011;38802;50.198;19.796;2023-12-29T13:11:10;2.80;;;2.30;;
52934;SDS011;38802;50.198;19.796;2023-12-29T13:13:42;2.40;;;2.20;;
52934;SDS011;38802;50.198;19.796;2023-12-29T13:16:14;2.60;;;2.40;;
52934;SDS011;38802;50.198;19.796;2023-12-29T13:18:42;3.10;;;2.30;;
52934;SDS011;38802;50.198;19.796;2023-12-29T13:22:12;2.90;;;2.70;;
52934;SDS011;38802;50.198;19.796;2023-12-29T13:24:44;3.00;;;2.30;;
52934;SDS011;38802;50.198;19.796;2023-12-29T13:27:22;3.30;;;2.50;;
52934;SDS011;38802;50.198;19.796;2023-12-29T13:29:53;2.60;;;2.40;;
52934;SDS011;38802;50.198;19.796;2023-12-29T13:32:22;2.70;;;2.50;;
52934;SDS011;38802;50.198;19.796;2023-12-29T13:35:05;2.50;;;2.00;;
52934;SDS011;38802;50.198;19.796;2023-12-29T13:38:08;2.70;;;2.40;;
52934;SDS011;38802;50.198;19.796;2023-12-29T13:40:47;2.80;;;2.40;;
52934;SDS011;38802;50.198;19.796;2023-12-29T13:43:23;2.80;;;2.50;;
52934;SDS011;38802;50.198;19.796;2023-12-29T13:45:52;5.60;;;2.50;;
52934;SDS011;38802;50.198;19.796;2023-12-29T13:48:21;4.10;;;2.80;;
52934;SDS011;38802;50.198;19.796;2023-12-29T13:50:50;2.70;;;2.50;;
52934;SDS011;38802;50.198;19.796;2023-12-29T13:53:18;3.20;;;2.90;;
52934;SDS011;38802;50.198;19.796;2023-12-29T13:55:48;6.00;;;2.80;;
52934;SDS011;38802;50.198;19.796;2023-12-29T13:58:16;4.40;;;3.40;;
52934;SDS011;38802;50.198;19.796;2023-12-29T14:00:53;2.90;;;2.20;;
52934;SDS011;38802;50.198;19.796;2023-12-29T14:03:59;4.80;;;3.10;;
52934;SDS011;38802;50.198;19.796;2023-12-29T14:06:48;2.90;;;2.60;;
52934;SDS011;38802;50.198;19.796;2023-12-29T14:09:38;3.90;;;2.60;;
52934;SDS011;38802;50.198;19.796;2023-12-29T14:12:06;3.30;;;3.00;;
52934;SDS011;38802;50.198;19.796;2023-12-29T14:14:34;3.60;;;3.20;;
52934;SDS011;38802;50.198;19.796;2023-12-29T14:17:03;3.00;;;2.60;;
52934;SDS011;38802;50.198;19.796;2023-12-29T14:19:36;3.30;;;3.00;;
52934;SDS011;38802;50.198;19.796;2023-12-29T14:29:20;3.70;;;3.40;;
52934;SDS011;38802;50.198;19.796;2023-12-29T14:31:49;5.90;;;3.10;;
52934;SDS011;38802;50.198;19.796;2023-12-29T14:35:05;3.10;;;2.80;;
52934;SDS011;38802;50.198;19.796;2023-12-29T14:37:43;6.40;;;3.20;;
52934;SDS011;38802;50.198;19.796;2023-12-29T14:40:13;6.70;;;3.60;;
52934;SDS011;38802;50.198;19.796;2023-12-29T14:42:41;5.90;;;4.70;;
52934;SDS011;38802;50.198;19.796;2023-12-29T14:45:10;4.80;;;4.20;;
52934;SDS011;38802;50.198;19.796;2023-12-29T14:47:38;4.60;;;3.70;;
52934;SDS011;38802;50.198;19.796;2023-12-29T14:50:06;4.00;;;3.40;;
52934;SDS011;38802;50.198;19.796;2023-12-29T14:52:35;3.70;;;3.30;;
52934;SDS011;38802;50.198;19.796;2023-12-29T14:55:05;9.00;;;4.30;;
52934;SDS011;38802;50.198;19.796;2023-12-29T14:57:34;9.00;;;4.20;;
52934;SDS011;38802;50.198;19.796;2023-12-29T15:00:02;9.40;;;5.20;;
52934;SDS011;38802;50.198;19.796;2023-12-29T15:02:32;6.40;;;4.90;;
52934;SDS011;38802;50.198;19.796;2023-12-29T15:05:00;9.90;;;5.20;;
52934;SDS011;38802;50.198;19.796;2023-12-29T15:07:32;8.50;;;5.20;;
52934;SDS011;38802;50.198;19.796;2023-12-29T15:10:00;8.80;;;4.40;;
52934;SDS011;38802;50.198;19.796;2023-12-29T15:12:28;4.60;;;3.60;;
52934;SDS011;38802;50.198;19.796;2023-12-29T15:14:56;5.60;;;3.90;;